Airfield :
LOGIN :

Register | Disclaimer

   EN    FR    IT 

 










Legend :    VFR   Marginal VFR   IFR   Intensive IFR   Very Intensive IFR
Visi :
Ceiling :
>= 8 km
>= 3000ft
5 to 8 km
1000 to 3000 ft
1500m to 5 km
500 to 1000 ft
800 to 1500m
200 to 500 ft
< 800m
< 200 ft
Symbols :   Thunderstorms  Fog  Heavy snow  Heavy precipitations  Wind > 20 kt
SIGMETs :     Misc.  Thunderstorms  Icing  Turbulence  Mountain Waves  Volcanic Ashes







- Airport Elevation : 489 ft
- IATA code : GDN


EPGD - Gdansk

CURRENT METAR :
  • 200130Z 14001KT 5000 MIFG BR NSC 06/06 Q1016

EXPIRED METARs :
  • 200100Z 16002KT 3500 MIFG BR NSC 07/06 Q1016
  • 200030Z VRB01KT 4000 BR NSC 07/07 Q1016
  • 200000Z 24002KT 6000 NSC 08/07 Q1016
  • 192330Z VRB02KT CAVOK 08/07 Q1016
  • 192300Z VRB01KT 9000 NSC 07/07 Q1016

TAF TAF EPGD
Valid from the 20 at 00:00 until the 21 at 00:00 UTC


192330Z 2000/2024 VRB05KT CAVOK
PROB40
TEMPO 2000/2006 1500 BR
PROB40
TEMPO 2014/2021 4000 SHRA SCT030CB
No reported NOTAMs for that airfield.



MET'MAP, your aeronautical weather chart ! - Copyright ORBIFLY December 2007 - Disclaimer

ORBIFLY MET'MAP TEAM :

Programming & Development : Alexandra Zaïnal
Concept & Development : Baudouin d'Aumeries
Co-Development & Prog : Marc-Olivier Méhu
Technical & hardware support : Manuel Goepfert

Contact : metmap@orbifly.com




SOURCES & CREDITS :

   NOAA